createdAt,value
2016-10-18T00:00:43.881Z,25.52
2016-10-18T00:01:54.364Z,25.5
2016-10-18T00:03:04.880Z,25.49
2016-10-18T00:04:15.436Z,25.44
2016-10-18T00:05:25.953Z,25.53
2016-10-18T00:06:36.456Z,25.42
2016-10-18T00:07:46.948Z,25.54
2016-10-18T00:08:57.449Z,25.47
2016-10-18T00:10:08.209Z,25.35
2016-10-18T00:11:18.713Z,25.49
2016-10-18T00:12:29.217Z,25.38
2016-10-18T00:13:39.705Z,25.32
2016-10-18T00:14:50.193Z,25.38
2016-10-18T00:16:00.667Z,25.43
2016-10-18T00:17:11.205Z,25.38
2016-10-18T00:18:21.718Z,25.37
2016-10-18T00:19:32.232Z,25.39
2016-10-18T00:20:42.759Z,25.39
2016-10-18T00:21:53.329Z,25.43
2016-10-18T00:23:03.868Z,25.38
2016-10-18T00:24:14.366Z,25.34
2016-10-18T00:25:24.849Z,25.44
2016-10-18T00:26:35.350Z,25.39
2016-10-18T00:27:45.858Z,25.42
2016-10-18T00:28:56.325Z,25.42
2016-10-18T00:30:06.832Z,25.37
2016-10-18T00:31:17.312Z,25.31
2016-10-18T00:32:27.859Z,25.32
2016-10-18T00:33:38.613Z,25.43
2016-10-18T00:34:49.116Z,25.31
2016-10-18T00:35:59.629Z,25.42
2016-10-18T00:37:10.132Z,25.38
2016-10-18T00:38:20.637Z,25.35
2016-10-18T00:39:31.168Z,25.28
2016-10-18T00:40:41.646Z,25.3
2016-10-18T00:41:52.178Z,25.34
2016-10-18T00:43:02.653Z,25.28
2016-10-18T00:44:13.216Z,25.27
2016-10-18T00:45:23.831Z,25.19
2016-10-18T00:46:34.340Z,25.24
2016-10-18T00:47:44.841Z,25.24
2016-10-18T00:48:55.388Z,25.22
2016-10-18T00:50:05.883Z,25.17
2016-10-18T00:51:16.460Z,25.22
2016-10-18T00:52:26.943Z,25.22
2016-10-18T00:53:37.493Z,25.22
2016-10-18T00:54:48.027Z,25.19
2016-10-18T00:55:58.525Z,25.15
2016-10-18T00:57:09.023Z,25.16
2016-10-18T00:58:19.479Z,25.19
2016-10-18T00:59:30.046Z,25.22
2016-10-18T01:00:40.550Z,25.12
2016-10-18T01:01:51.036Z,25.15
2016-10-18T01:03:01.657Z,25.16
2016-10-18T01:04:12.228Z,25.13
2016-10-18T01:05:22.681Z,25.16
2016-10-18T01:06:33.179Z,25.13
2016-10-18T01:07:43.667Z,25.22
2016-10-18T01:08:54.280Z,25.2
2016-10-18T01:10:04.797Z,25.19
2016-10-18T01:11:15.298Z,25.17
2016-10-18T01:12:25.751Z,25.25
2016-10-18T01:13:36.207Z,25.19
2016-10-18T01:14:46.755Z,25.34
2016-10-18T01:15:57.248Z,25.2
2016-10-18T01:17:07.760Z,25.28
2016-10-18T01:18:18.282Z,25.17
2016-10-18T01:19:28.767Z,25.25
2016-10-18T01:20:39.353Z,25.16
2016-10-18T01:21:49.833Z,25.2
2016-10-18T01:23:00.313Z,25.2
2016-10-18T01:24:10.811Z,25.19
2016-10-18T01:25:21.345Z,25.13
2016-10-18T01:26:31.999Z,25.2
2016-10-18T01:27:42.457Z,25.19
2016-10-18T01:28:52.944Z,25.19
2016-10-18T01:30:03.433Z,25.06
2016-10-18T01:31:13.907Z,25.16
2016-10-18T01:32:24.434Z,25.13
2016-10-18T01:33:34.931Z,25.12
2016-10-18T01:34:45.418Z,25.06
2016-10-18T01:35:55.911Z,25.02
2016-10-18T01:37:06.451Z,25.05
2016-10-18T01:38:17.031Z,24.94
2016-10-18T01:39:27.538Z,24.92
2016-10-18T01:40:38.046Z,24.94
2016-10-18T01:41:48.572Z,24.87
2016-10-18T01:42:59.077Z,24.71
2016-10-18T01:44:09.550Z,24.6
2016-10-18T01:45:20.037Z,24.57
2016-10-18T01:46:30.543Z,24.35
2016-10-18T01:47:41.022Z,24.27
2016-10-18T01:48:51.540Z,24.22
2016-10-18T01:50:02.134Z,24.19
2016-10-18T01:51:12.695Z,24.05
2016-10-18T01:52:23.211Z,24.13
2016-10-18T01:53:33.689Z,24.08
2016-10-18T01:54:44.185Z,24.05
2016-10-18T01:55:54.750Z,23.98
2016-10-18T01:57:05.303Z,23.86
2016-10-18T01:58:15.801Z,23.86
2016-10-18T01:59:26.751Z,23.72
2016-10-18T02:00:37.208Z,23.72
2016-10-18T02:01:47.823Z,23.68
2016-10-18T02:02:58.313Z,23.65
2016-10-18T02:04:08.819Z,23.6
2016-10-18T02:05:19.345Z,23.57
2016-10-18T02:06:29.865Z,23.46
2016-10-18T02:07:40.434Z,23.46
2016-10-18T02:08:50.981Z,23.38
2016-10-18T02:10:01.479Z,23.39
2016-10-18T02:11:11.948Z,23.39
2016-10-18T02:12:22.411Z,23.43
2016-10-18T02:13:32.998Z,23.39
2016-10-18T02:14:43.482Z,23.31
2016-10-18T02:15:53.975Z,23.39
2016-10-18T02:17:04.447Z,23.35
2016-10-18T02:18:14.920Z,23.32
2016-10-18T02:19:25.434Z,23.4
2016-10-18T02:20:35.956Z,23.35
2016-10-18T02:21:46.442Z,23.31
2016-10-18T02:22:56.929Z,23.38
2016-10-18T02:24:07.421Z,23.4
2016-10-18T02:25:18.037Z,23.34
2016-10-18T02:26:29.040Z,23.24
2016-10-18T02:27:39.496Z,23.32
2016-10-18T02:28:49.968Z,23.35
2016-10-18T02:30:00.422Z,23.29
2016-10-18T02:31:10.883Z,23.26
2016-10-18T02:32:21.345Z,23.31
2016-10-18T02:33:31.801Z,23.32
2016-10-18T02:34:42.264Z,23.22
2016-10-18T02:35:52.716Z,23.26
2016-10-18T02:37:03.272Z,23.26
2016-10-18T02:38:13.733Z,23.26
2016-10-18T02:39:24.200Z,23.22
2016-10-18T02:40:34.658Z,23.26
2016-10-18T02:41:45.124Z,23.23
2016-10-18T02:42:55.571Z,23.2
2016-10-18T02:44:06.028Z,23.24
2016-10-18T02:45:16.486Z,23.26
2016-10-18T02:46:26.941Z,23.29
2016-10-18T02:47:37.432Z,23.24
2016-10-18T02:48:47.981Z,23.35
2016-10-18T02:49:58.446Z,23.38
2016-10-18T02:51:08.914Z,23.24
2016-10-18T02:52:19.368Z,23.31
2016-10-18T02:53:29.825Z,23.27
2016-10-18T02:54:40.392Z,23.22
2016-10-18T02:55:50.846Z,23.14
2016-10-18T02:57:01.303Z,23.14
2016-10-18T02:58:11.757Z,23.04
2016-10-18T02:59:22.210Z,23.01
2016-10-18T03:00:32.703Z,23.08
2016-10-18T03:01:43.157Z,23.11
2016-10-18T03:02:53.656Z,23.12
2016-10-18T03:04:04.108Z,23.09
2016-10-18T03:05:14.566Z,23.15
2016-10-18T03:06:25.126Z,23.08
2016-10-18T03:07:35.589Z,23.05
2016-10-18T03:08:46.035Z,23.12
2016-10-18T03:09:56.489Z,22.97
2016-10-18T03:11:06.943Z,23.01
2016-10-18T03:12:17.505Z,23.04
2016-10-18T03:13:27.966Z,22.96
2016-10-18T03:14:38.904Z,22.9
2016-10-18T03:15:49.389Z,22.87
2016-10-18T03:16:59.886Z,23.01
2016-10-18T03:18:10.349Z,22.87
2016-10-18T03:19:20.840Z,22.8
2016-10-18T03:20:31.305Z,22.75
2016-10-18T03:21:41.761Z,22.74
2016-10-18T03:22:52.222Z,22.86
2016-10-18T03:24:02.781Z,22.62
2016-10-18T03:25:13.247Z,22.77
2016-10-18T03:26:23.704Z,22.77
2016-10-18T03:27:34.152Z,22.71
2016-10-18T03:28:44.616Z,22.75
2016-10-18T03:29:55.172Z,22.75
2016-10-18T03:31:05.623Z,22.71
2016-10-18T03:32:16.079Z,22.65
2016-10-18T03:33:26.540Z,22.59
2016-10-18T03:34:37.001Z,22.57
2016-10-18T03:35:47.509Z,22.54
2016-10-18T03:36:58.025Z,22.56
2016-10-18T03:38:08.525Z,22.53
2016-10-18T03:39:19.038Z,22.47
2016-10-18T03:40:29.576Z,22.52
2016-10-18T03:41:40.161Z,22.53
2016-10-18T03:42:50.720Z,22.67
2016-10-18T03:44:01.180Z,22.69
2016-10-18T03:45:11.678Z,22.59
2016-10-18T03:46:22.202Z,22.64
2016-10-18T03:47:32.771Z,22.65
2016-10-18T03:48:43.337Z,22.62
2016-10-18T03:49:53.872Z,22.69
2016-10-18T03:51:04.354Z,22.62
2016-10-18T03:52:14.846Z,22.53
2016-10-18T03:53:25.345Z,22.56
2016-10-18T03:54:35.865Z,22.57
2016-10-18T03:55:46.334Z,22.57
2016-10-18T03:56:56.801Z,22.53
2016-10-18T03:58:07.366Z,22.5
2016-10-18T03:59:17.873Z,22.44
2016-10-18T04:00:28.379Z,22.39
2016-10-18T04:01:38.844Z,22.34
2016-10-18T04:02:49.328Z,22.37
2016-10-18T04:03:59.803Z,22.39
2016-10-18T04:05:10.411Z,22.37
2016-10-18T04:06:20.970Z,22.32
2016-10-18T04:07:31.451Z,22.34
2016-10-18T04:08:41.949Z,22.29
2016-10-18T04:09:52.453Z,22.37
2016-10-18T04:11:03.083Z,22.37
2016-10-18T04:12:13.655Z,22.43
2016-10-18T04:13:24.249Z,22.44
2016-10-18T04:14:34.814Z,22.35
2016-10-18T04:15:45.337Z,22.34
2016-10-18T04:16:55.874Z,22.41
2016-10-18T04:18:06.399Z,22.35
2016-10-18T04:19:16.932Z,22.34
2016-10-18T04:20:27.439Z,22.34
2016-10-18T04:21:37.977Z,22.35
2016-10-18T04:22:48.512Z,22.35
2016-10-18T04:23:59.044Z,22.32
2016-10-18T04:25:09.598Z,22.32
2016-10-18T04:26:20.135Z,22.37
2016-10-18T04:27:30.666Z,22.35
2016-10-18T04:28:41.325Z,22.37
2016-10-18T04:29:51.884Z,22.39
2016-10-18T04:31:02.433Z,22.37
2016-10-18T04:32:12.999Z,22.34
2016-10-18T04:33:23.521Z,22.34
2016-10-18T04:34:34.121Z,22.38
2016-10-18T04:35:44.692Z,22.37
2016-10-18T04:36:55.215Z,22.32
2016-10-18T04:38:05.726Z,22.27
2016-10-18T04:39:16.264Z,22.37
2016-10-18T04:40:26.790Z,22.34
2016-10-18T04:41:37.343Z,22.29
2016-10-18T04:42:47.902Z,22.32
2016-10-18T04:43:58.436Z,22.38
2016-10-18T04:45:09.009Z,22.34
2016-10-18T04:46:19.523Z,22.46
2016-10-18T04:47:30.040Z,22.35
2016-10-18T04:48:40.542Z,22.32
2016-10-18T04:49:51.030Z,22.22
2016-10-18T04:51:01.581Z,22.34
2016-10-18T04:52:12.227Z,22.31
2016-10-18T04:53:22.676Z,22.37
2016-10-18T04:54:33.162Z,22.34
2016-10-18T04:55:44.172Z,22.35
2016-10-18T04:56:54.659Z,22.32
2016-10-18T04:58:05.269Z,22.39
2016-10-18T04:59:15.750Z,22.32
2016-10-18T05:00:26.292Z,22.34
2016-10-18T05:01:36.804Z,22.35
2016-10-18T05:02:47.304Z,22.35
2016-10-18T05:03:57.794Z,22.39
2016-10-18T05:05:08.264Z,22.38
2016-10-18T05:06:18.748Z,22.37
2016-10-18T05:07:29.225Z,22.38
2016-10-18T05:08:39.733Z,22.38
2016-10-18T05:09:50.697Z,22.31
2016-10-18T05:11:01.196Z,22.25
2016-10-18T05:12:11.684Z,22.29
2016-10-18T05:13:22.157Z,22.23
2016-10-18T05:14:32.679Z,22.19
2016-10-18T05:15:43.343Z,22.22
2016-10-18T05:16:53.834Z,22.22
2016-10-18T05:18:04.342Z,22.13
2016-10-18T05:19:14.899Z,22.17
2016-10-18T05:20:25.359Z,22.16
2016-10-18T05:21:35.919Z,22.2
2016-10-18T05:22:46.370Z,22.22
2016-10-18T05:23:56.833Z,22.23
2016-10-18T05:25:07.298Z,22.28
2016-10-18T05:26:17.749Z,22.35
2016-10-18T05:27:28.229Z,22.38
2016-10-18T05:28:38.693Z,22.39
2016-10-18T05:29:49.146Z,22.37
2016-10-18T05:30:59.638Z,22.37
2016-10-18T05:32:10.098Z,22.37
2016-10-18T05:33:20.549Z,22.22
2016-10-18T05:34:30.989Z,22.17
2016-10-18T05:35:41.448Z,22.23
2016-10-18T05:36:51.912Z,22.22
2016-10-18T05:38:02.883Z,22.28
2016-10-18T05:39:13.433Z,22.34
2016-10-18T05:40:23.882Z,22.43
2016-10-18T05:41:34.341Z,22.38
2016-10-18T05:42:44.792Z,22.38
2016-10-18T05:43:55.257Z,22.37
2016-10-18T05:45:05.815Z,22.29
2016-10-18T05:46:16.277Z,22.25
2016-10-18T05:47:26.739Z,22.22
2016-10-18T05:48:37.714Z,22.16
2016-10-18T05:49:48.172Z,22.23
2016-10-18T05:50:58.627Z,22.14
2016-10-18T05:52:09.079Z,22.22
2016-10-18T05:53:19.523Z,22.23
2016-10-18T05:54:29.976Z,22.29
2016-10-18T05:55:40.429Z,22.27
2016-10-18T05:56:50.924Z,22.34
2016-10-18T05:58:01.435Z,22.29
2016-10-18T05:59:11.997Z,22.37
2016-10-18T06:00:22.545Z,22.35
2016-10-18T06:01:33.103Z,22.41
2016-10-18T06:02:43.744Z,22.37
2016-10-18T06:03:54.288Z,22.37
2016-10-18T06:05:04.966Z,22.37
2016-10-18T06:06:15.514Z,22.38
2016-10-18T06:07:25.999Z,22.31
2016-10-18T06:08:36.669Z,22.31
2016-10-18T06:09:47.243Z,22.25
2016-10-18T06:10:57.816Z,22.23
2016-10-18T06:12:08.343Z,22.09
2016-10-18T06:13:18.867Z,22.01
2016-10-18T06:14:29.396Z,22.07
2016-10-18T06:15:40.019Z,21.97
2016-10-18T06:16:50.512Z,21.83
2016-10-18T06:18:01.002Z,21.97
2016-10-18T06:19:11.551Z,22.07
2016-10-18T06:20:22.126Z,22.07
2016-10-18T06:21:32.688Z,22.14
2016-10-18T06:22:43.243Z,22.13
2016-10-18T06:23:53.754Z,22.16
2016-10-18T06:25:04.269Z,22.14
2016-10-18T06:26:14.939Z,22.12
2016-10-18T06:27:25.464Z,22.14
2016-10-18T06:28:36.009Z,22.19
2016-10-18T06:29:46.560Z,22.04
2016-10-18T06:30:57.078Z,22.13
2016-10-18T06:32:07.695Z,22.16
2016-10-18T06:33:18.225Z,22.1
2016-10-18T06:34:28.728Z,21.94
2016-10-18T06:35:39.187Z,21.97
2016-10-18T06:36:49.711Z,22.07
2016-10-18T06:38:00.196Z,21.94
2016-10-18T06:39:10.741Z,22.02
2016-10-18T06:40:21.242Z,22.04
2016-10-18T06:41:31.730Z,21.98
2016-10-18T06:42:42.215Z,21.99
2016-10-18T06:43:52.669Z,21.9
2016-10-18T06:45:03.155Z,21.88
2016-10-18T06:46:13.660Z,21.9
2016-10-18T06:47:24.176Z,21.85
2016-10-18T06:48:34.683Z,21.83
2016-10-18T06:49:45.288Z,21.88
2016-10-18T06:50:55.802Z,21.79
2016-10-18T06:52:06.323Z,21.81
2016-10-18T06:53:16.800Z,21.82
2016-10-18T06:54:27.249Z,21.75
2016-10-18T06:55:37.745Z,21.81
2016-10-18T06:56:48.244Z,21.82
2016-10-18T06:57:58.793Z,21.83
2016-10-18T06:59:09.372Z,21.81
2016-10-18T07:00:19.852Z,21.83
2016-10-18T07:01:30.323Z,21.82
2016-10-18T07:02:40.836Z,21.85
2016-10-18T07:03:51.377Z,21.88
2016-10-18T07:05:01.895Z,21.97
2016-10-18T07:06:12.363Z,21.94
2016-10-18T07:07:22.924Z,21.98
2016-10-18T07:08:33.372Z,22.02
2016-10-18T07:09:43.835Z,21.98
2016-10-18T07:10:54.285Z,22.1
2016-10-18T07:12:04.787Z,22.17
2016-10-18T07:13:15.350Z,22.04
2016-10-18T07:14:25.810Z,22.16
2016-10-18T07:15:36.297Z,22.13
2016-10-18T07:16:46.765Z,22.14
2016-10-18T07:17:57.230Z,22.12
2016-10-18T07:19:07.688Z,22.06
2016-10-18T07:20:18.145Z,22.01
2016-10-18T07:21:28.595Z,22.07
2016-10-18T07:22:39.057Z,22.06
2016-10-18T07:23:49.566Z,22.07
2016-10-18T07:25:00.122Z,22.04
2016-10-18T07:26:10.623Z,22.13
2016-10-18T07:27:21.071Z,21.99
2016-10-18T07:28:31.522Z,21.97
2016-10-18T07:29:41.977Z,21.91
2016-10-18T07:30:52.487Z,21.85
2016-10-18T07:32:02.946Z,21.83
2016-10-18T07:33:13.417Z,21.85
2016-10-18T07:34:23.880Z,21.85
2016-10-18T07:35:34.331Z,21.91
2016-10-18T07:36:44.879Z,22.02
2016-10-18T07:37:55.334Z,21.88
2016-10-18T07:39:05.814Z,21.88
2016-10-18T07:40:16.269Z,21.82
2016-10-18T07:41:26.875Z,21.79
2016-10-18T07:42:37.900Z,21.74
2016-10-18T07:43:48.377Z,21.59
2016-10-18T07:44:58.872Z,21.45
2016-10-18T07:46:09.411Z,21.39
2016-10-18T07:47:19.921Z,21.36
2016-10-18T07:48:30.527Z,21.3
2016-10-18T07:49:41.029Z,21.3
2016-10-18T07:50:51.521Z,21.26
2016-10-18T07:52:02.035Z,21.3
2016-10-18T07:53:12.560Z,21.3
2016-10-18T07:54:23.047Z,21.26
2016-10-18T07:55:33.545Z,21.21
2016-10-18T07:56:44.109Z,21.24
2016-10-18T07:57:54.612Z,21.19
2016-10-18T07:59:05.116Z,21.2
2016-10-18T08:00:15.755Z,21.13
2016-10-18T08:01:26.249Z,21.13
2016-10-18T08:02:36.713Z,21.13
2016-10-18T08:03:47.209Z,21.11
2016-10-18T08:04:57.683Z,21.13
2016-10-18T08:06:08.271Z,21.08
2016-10-18T08:07:18.757Z,21.19
2016-10-18T08:08:29.274Z,21.14
2016-10-18T08:09:39.748Z,21.05
2016-10-18T08:10:50.216Z,21.09
2016-10-18T08:12:00.785Z,21.17
2016-10-18T08:13:11.306Z,21.21
2016-10-18T08:14:21.845Z,21.19
2016-10-18T08:15:32.363Z,21.24
2016-10-18T08:16:42.896Z,21.23
2016-10-18T08:17:53.439Z,21.17
2016-10-18T08:19:03.966Z,21.14
2016-10-18T08:20:14.507Z,21.13
2016-10-18T08:21:25.088Z,21.23
2016-10-18T08:22:35.645Z,21.21
2016-10-18T08:23:46.289Z,21.27
2016-10-18T08:24:56.880Z,21.27
2016-10-18T08:26:07.400Z,21.3
2016-10-18T08:27:17.928Z,21.23
2016-10-18T08:28:28.477Z,21.26
2016-10-18T08:29:39.145Z,21.19
2016-10-18T08:30:49.686Z,21.19
2016-10-18T08:32:00.249Z,21.23
2016-10-18T08:33:10.793Z,21.14
2016-10-18T08:34:21.315Z,21.14
2016-10-18T08:35:31.962Z,21.13
2016-10-18T08:36:42.422Z,21.11
2016-10-18T08:37:52.928Z,21.17
2016-10-18T08:39:04.014Z,21.16
2016-10-18T08:40:14.528Z,21.14
2016-10-18T08:41:25.202Z,21.32
2016-10-18T08:42:35.764Z,21.27
2016-10-18T08:43:46.308Z,21.3
2016-10-18T08:44:56.906Z,21.27
2016-10-18T08:46:07.463Z,21.29
2016-10-18T08:49:42.292Z,21.34
2016-10-18T08:50:52.820Z,21.29
2016-10-18T08:52:03.370Z,21.3
2016-10-18T08:53:13.989Z,21.32
2016-10-18T08:54:24.569Z,21.34
2016-10-18T08:55:35.116Z,21.34
2016-10-18T08:56:45.718Z,21.35
2016-10-18T08:57:56.246Z,21.34
2016-10-18T08:59:07.282Z,21.36
2016-10-18T09:00:17.867Z,21.24
2016-10-18T09:01:28.406Z,21.41
2016-10-18T09:02:38.962Z,21.46
2016-10-18T09:03:49.496Z,21.45
2016-10-18T09:04:59.990Z,21.54
2016-10-18T09:06:10.588Z,21.57
2016-10-18T09:07:21.124Z,21.54
2016-10-18T09:08:31.644Z,21.53
2016-10-18T09:09:42.188Z,21.53
2016-10-18T09:10:52.836Z,21.66
2016-10-18T09:12:03.405Z,21.69
2016-10-18T09:13:13.990Z,21.69
2016-10-18T09:14:24.494Z,21.64
2016-10-18T09:15:35.065Z,21.66
2016-10-18T09:16:45.711Z,21.72
2016-10-18T09:17:56.236Z,21.82
2016-10-18T09:19:06.734Z,21.72
2016-10-18T09:20:17.308Z,21.79
2016-10-18T09:21:27.808Z,21.78
2016-10-18T09:22:38.421Z,21.76
2016-10-18T09:23:48.982Z,21.78
2016-10-18T09:24:59.521Z,21.79
2016-10-18T09:26:10.030Z,21.82
2016-10-18T09:27:20.600Z,21.82
2016-10-18T09:28:31.217Z,21.92
2016-10-18T09:29:41.788Z,21.94
2016-10-18T09:30:52.336Z,22.1
2016-10-18T09:32:02.874Z,22.12
2016-10-18T09:33:13.418Z,22.16
2016-10-18T09:34:24.018Z,22.23
2016-10-18T09:35:34.551Z,22.39
2016-10-18T09:36:45.092Z,22.37
2016-10-18T09:37:55.574Z,22.43
2016-10-18T09:39:06.082Z,22.53
2016-10-18T09:40:16.604Z,22.65
2016-10-18T09:41:27.117Z,22.6
2016-10-18T09:42:37.630Z,22.8
2016-10-18T09:43:48.188Z,22.87
2016-10-18T09:44:58.712Z,22.96
2016-10-18T09:46:09.323Z,23.01
2016-10-18T09:47:19.871Z,22.97
2016-10-18T09:48:30.453Z,22.97
2016-10-18T09:49:41.007Z,23.08
2016-10-18T09:50:51.533Z,23.24
2016-10-18T09:52:02.122Z,23.52
2016-10-18T09:53:12.708Z,23.85
2016-10-18T09:54:23.726Z,24.05
2016-10-18T09:55:34.263Z,24.14
2016-10-18T09:56:44.870Z,24.13
2016-10-18T09:57:55.490Z,24.14
2016-10-18T09:59:06.059Z,24.38
2016-10-18T10:00:16.589Z,24.52
2016-10-18T10:01:27.148Z,24.88
2016-10-18T10:02:37.671Z,25.02
2016-10-18T10:03:48.209Z,25.15
2016-10-18T10:04:58.799Z,25.22
2016-10-18T10:06:09.341Z,25.47
2016-10-18T10:07:19.880Z,25.87
2016-10-18T10:08:30.438Z,26.18
2016-10-18T10:09:41.095Z,26.29
2016-10-18T10:10:51.682Z,26.52
2016-10-18T10:12:02.205Z,26.72
2016-10-18T10:13:12.840Z,27.06
2016-10-18T10:14:23.388Z,27.32
2016-10-18T10:15:33.995Z,27.17
2016-10-18T10:16:44.553Z,27.02
2016-10-18T10:17:55.104Z,26.83
2016-10-18T10:19:05.662Z,26.58
2016-10-18T10:20:16.225Z,26.52
2016-10-18T10:21:26.778Z,26.54
2016-10-18T10:22:37.341Z,26.65
2016-10-18T10:23:47.902Z,26.92
2016-10-18T10:24:58.479Z,27.1
2016-10-18T10:26:09.091Z,27.17
2016-10-18T10:27:19.771Z,27.19
2016-10-18T10:28:30.355Z,27.41
2016-10-18T10:29:40.876Z,27.89
2016-10-18T10:30:51.459Z,27.64
2016-10-18T10:32:02.004Z,27.86
2016-10-18T10:33:12.616Z,27.66
2016-10-18T10:34:23.160Z,27.58
2016-10-18T10:35:33.729Z,27.32
2016-10-18T10:36:44.277Z,27.01
2016-10-18T10:37:54.800Z,26.91
2016-10-18T10:39:05.454Z,26.61
2016-10-18T10:40:15.965Z,26.39
2016-10-18T10:41:26.477Z,26.31
2016-10-18T10:42:36.985Z,26.27
2016-10-18T10:43:47.516Z,26.54
2016-10-18T10:44:58.079Z,26.73
2016-10-18T10:46:08.628Z,26.61
2016-10-18T10:47:19.169Z,26.58
2016-10-18T10:48:29.743Z,26.64
2016-10-18T10:49:40.306Z,26.72
2016-10-18T10:50:50.963Z,26.84
2016-10-18T10:52:01.577Z,26.79
2016-10-18T10:53:12.197Z,26.68
2016-10-18T10:54:22.782Z,26.64
2016-10-18T10:55:33.372Z,26.57
2016-10-18T10:56:43.951Z,26.5
2016-10-18T10:57:54.554Z,26.37
2016-10-18T10:59:05.357Z,26.32
2016-10-18T11:00:16.014Z,26.72
2016-10-18T11:01:26.597Z,27.11
2016-10-18T11:02:37.285Z,27.67
2016-10-18T11:03:47.858Z,28.17
2016-10-18T11:04:58.441Z,28.87
2016-10-18T11:06:09.028Z,29.71
2016-10-18T11:07:19.616Z,30.47
2016-10-18T11:08:30.310Z,30.69
2016-10-18T11:09:40.889Z,30.62
2016-10-18T11:10:51.478Z,30.56
2016-10-18T11:12:02.084Z,30.12
2016-10-18T11:13:12.660Z,30.43
2016-10-18T11:14:23.347Z,30.61
2016-10-18T11:15:33.935Z,30.24
2016-10-18T11:16:44.562Z,30.67
2016-10-18T11:17:55.146Z,30.93
2016-10-18T11:19:05.812Z,30.83
2016-10-18T11:20:16.388Z,31.02
2016-10-18T11:21:26.974Z,30.81
2016-10-18T11:22:37.555Z,31.06
2016-10-18T11:23:48.141Z,31.01
2016-10-18T11:24:59.218Z,31.26
2016-10-18T11:26:09.912Z,31.46
2016-10-18T11:27:20.518Z,31.46
2016-10-18T11:28:31.101Z,31.84
2016-10-18T11:29:41.693Z,31.48
2016-10-18T11:30:52.279Z,31.96
2016-10-18T11:32:03.374Z,32.49
2016-10-18T11:33:13.990Z,33.27
2016-10-18T11:34:24.625Z,33.74
2016-10-18T11:35:35.258Z,34
2016-10-18T11:36:45.854Z,33.76
2016-10-18T11:37:56.554Z,33.76
2016-10-18T11:39:07.137Z,33.89
2016-10-18T11:40:17.726Z,33.98
2016-10-18T11:41:28.324Z,34.13
2016-10-18T11:42:39.449Z,33.92
2016-10-18T11:43:50.046Z,33.94
2016-10-18T11:45:00.673Z,33.7
2016-10-18T11:46:11.259Z,33.67
2016-10-18T11:47:21.849Z,33.53
2016-10-18T11:48:32.444Z,34.11
2016-10-18T11:49:43.137Z,34.61
2016-10-18T11:50:53.734Z,34.61
2016-10-18T11:52:04.358Z,34.95
2016-10-18T11:53:14.935Z,35.06
2016-10-18T11:54:25.531Z,35.28
2016-10-18T11:55:36.122Z,35.63
2016-10-18T11:56:46.720Z,35.81
2016-10-18T11:57:57.347Z,35.62
2016-10-18T11:59:07.938Z,35.72
2016-10-18T12:00:18.567Z,35.39
2016-10-18T12:01:29.311Z,35.95
2016-10-18T12:02:39.912Z,36.41
2016-10-18T12:03:50.507Z,36.58
2016-10-18T12:05:01.105Z,36.68
2016-10-18T12:06:11.704Z,36.68
2016-10-18T12:07:22.872Z,36.76
2016-10-18T12:08:33.495Z,37.14
2016-10-18T12:09:44.084Z,37.46
2016-10-18T12:10:54.681Z,37.31
2016-10-18T12:12:05.273Z,36.85
2016-10-18T12:13:15.878Z,36.39
2016-10-18T12:14:26.469Z,36.3
2016-10-18T12:15:37.069Z,36.61
2016-10-18T12:16:47.671Z,36.79
2016-10-18T12:17:58.280Z,36.63
2016-10-18T12:19:08.945Z,36.45
2016-10-18T12:20:19.538Z,36.43
2016-10-18T12:21:30.070Z,36.76
2016-10-18T12:22:40.660Z,36.68
2016-10-18T12:23:51.211Z,37.24
2016-10-18T12:25:01.903Z,37.2
2016-10-18T12:26:12.448Z,37.62
2016-10-18T12:27:23.034Z,37.26
2016-10-18T12:28:33.587Z,37.14
2016-10-18T12:29:44.139Z,36.91
2016-10-18T12:30:54.665Z,37.67
2016-10-18T12:32:05.762Z,38.45
2016-10-18T12:33:16.325Z,38.66
2016-10-18T12:34:26.880Z,39.24
2016-10-18T12:35:37.424Z,39.22
2016-10-18T12:36:48.073Z,39.32
2016-10-18T12:37:58.632Z,39.09
2016-10-18T12:39:09.234Z,39.03
2016-10-18T12:40:19.792Z,37.76
2016-10-18T12:41:30.345Z,36.76
2016-10-18T12:42:40.902Z,36.01
2016-10-18T12:43:51.516Z,35.58
2016-10-18T12:45:02.168Z,35.86
2016-10-18T12:46:12.739Z,35.69
2016-10-18T12:47:23.296Z,35.18
2016-10-18T12:48:34.000Z,35.07
2016-10-18T12:49:44.586Z,35.06
2016-10-18T12:50:55.115Z,35.15
2016-10-18T12:52:05.710Z,35.15
2016-10-18T12:53:16.281Z,34.84
2016-10-18T12:54:26.943Z,34.66
2016-10-18T12:55:37.484Z,35.01
2016-10-18T12:56:48.089Z,35.1
2016-10-18T12:57:58.685Z,35.7
2016-10-18T12:59:09.319Z,36.42
2016-10-18T13:00:19.917Z,37.32
2016-10-18T13:01:30.504Z,37.36
2016-10-18T13:02:41.111Z,37.31
2016-10-18T13:03:51.712Z,37.31
2016-10-18T13:05:02.311Z,37.43
2016-10-18T13:06:13.030Z,37.81
2016-10-18T13:07:23.626Z,38.03
2016-10-18T13:08:34.299Z,38.03
2016-10-18T13:09:45.429Z,37.2
2016-10-18T13:10:56.019Z,37.04
2016-10-18T13:12:06.712Z,37.38
2016-10-18T13:13:17.347Z,37.36
2016-10-18T13:14:27.983Z,37.39
2016-10-18T13:15:38.577Z,37.24
2016-10-18T13:16:49.665Z,36.56
2016-10-18T13:18:00.275Z,36.12
2016-10-18T13:19:10.875Z,36.14
2016-10-18T13:20:21.469Z,36.7
2016-10-18T13:21:32.071Z,37.29
2016-10-18T13:22:43.263Z,37.68
2016-10-18T13:23:53.888Z,37.31
2016-10-18T13:25:04.982Z,37.24
2016-10-18T13:26:15.599Z,37.32
2016-10-18T13:27:26.201Z,37.07
2016-10-18T13:28:36.814Z,37.2
2016-10-18T13:29:47.418Z,37.68
2016-10-18T13:30:58.090Z,37.89
2016-10-18T13:32:08.685Z,38.33
2016-10-18T13:33:19.324Z,38.22
2016-10-18T13:34:29.921Z,38.32
2016-10-18T13:35:40.639Z,38.55
2016-10-18T13:36:51.244Z,38.44
2016-10-18T13:38:01.832Z,38.22
2016-10-18T13:39:12.451Z,38.46
2016-10-18T13:40:23.046Z,38.26
2016-10-18T13:41:33.648Z,38.57
2016-10-18T13:42:44.242Z,38.42
2016-10-18T13:43:54.845Z,38.29
2016-10-18T13:45:05.441Z,38.1
2016-10-18T13:46:16.025Z,38.58
2016-10-18T13:47:26.735Z,38.9
2016-10-18T13:48:37.343Z,38.99
2016-10-18T13:49:48.309Z,38.49
2016-10-18T13:50:58.913Z,38.34
2016-10-18T13:52:09.530Z,38.08
2016-10-18T13:53:20.224Z,38.44
2016-10-18T13:54:30.828Z,38.55
2016-10-18T13:55:41.459Z,38.48
2016-10-18T13:56:52.060Z,38.42
2016-10-18T13:58:02.665Z,38.49
2016-10-18T13:59:13.269Z,38.08
2016-10-18T14:00:23.865Z,37.93
2016-10-18T14:01:34.460Z,37.58
2016-10-18T14:02:45.052Z,37.48
2016-10-18T14:03:55.693Z,37.41
2016-10-18T14:05:06.337Z,37.31
2016-10-18T14:06:16.941Z,37.38
2016-10-18T14:07:27.580Z,37.59
2016-10-18T14:08:38.177Z,38.03
2016-10-18T14:09:48.781Z,38.45
2016-10-18T14:10:59.493Z,38.26
2016-10-18T14:12:10.120Z,38.44
2016-10-18T14:13:20.708Z,38.63
2016-10-18T14:14:31.348Z,38.49
2016-10-18T14:15:41.979Z,38.44
2016-10-18T14:16:52.569Z,38.3
2016-10-18T14:18:03.669Z,38.27
2016-10-18T14:19:14.267Z,38.24
2016-10-18T14:20:24.859Z,38.32
2016-10-18T14:21:35.460Z,38.39
2016-10-18T14:22:46.146Z,38.3
2016-10-18T14:23:56.743Z,37.54
2016-10-18T14:25:07.350Z,37.67
2016-10-18T14:26:17.955Z,37.9
2016-10-18T14:27:28.533Z,38.23
2016-10-18T14:28:39.179Z,38.24
2016-10-18T14:29:49.809Z,38.38
2016-10-18T14:31:00.441Z,38.3
2016-10-18T14:32:11.117Z,38.49
2016-10-18T14:33:21.719Z,38.44
2016-10-18T14:34:32.406Z,38.68
2016-10-18T14:35:43.012Z,38.64
2016-10-18T14:36:53.614Z,38.63
2016-10-18T14:38:04.208Z,38.3
2016-10-18T14:39:14.817Z,38.14
2016-10-18T14:40:26.062Z,37.92
2016-10-18T14:41:36.700Z,37.56
2016-10-18T14:42:47.279Z,37.83
2016-10-18T14:43:57.875Z,37.92
2016-10-18T14:45:08.470Z,38.03
2016-10-18T14:46:19.068Z,38.45
2016-10-18T14:47:29.712Z,38.6
2016-10-18T14:48:40.308Z,38.23
2016-10-18T14:49:50.899Z,38.41
2016-10-18T14:51:01.494Z,38.44
2016-10-18T14:52:12.699Z,38.53
2016-10-18T14:53:23.289Z,38.64
2016-10-18T14:54:33.951Z,38.66
2016-10-18T14:55:44.554Z,38.1
2016-10-18T14:56:55.155Z,37.9
2016-10-18T14:58:06.345Z,37.55
2016-10-18T14:59:16.943Z,37.71
2016-10-18T15:00:27.528Z,37.99
2016-10-18T15:01:38.657Z,38.57
2016-10-18T15:02:49.263Z,38.03
2016-10-18T15:03:59.967Z,37.71
2016-10-18T15:05:10.575Z,38.34
2016-10-18T15:06:21.661Z,38.95
2016-10-18T15:07:32.263Z,38.66
2016-10-18T15:08:42.870Z,38.95
2016-10-18T15:09:53.602Z,39.25
2016-10-18T15:11:04.199Z,39.47
2016-10-18T15:12:14.800Z,39.64
2016-10-18T15:13:25.451Z,39.54